createdAt,value
2023-01-15T00:00:26.628Z,1.40
2023-01-15T00:02:57.715Z,2.03
2023-01-15T00:05:25.798Z,1.60
2023-01-15T00:07:53.964Z,1.60
2023-01-15T00:10:25.461Z,1.85
2023-01-15T00:12:53.368Z,1.88
2023-01-15T00:15:21.400Z,1.17
2023-01-15T00:17:50.004Z,1.63
2023-01-15T00:20:19.516Z,2.20
2023-01-15T00:22:47.286Z,1.23
2023-01-15T00:25:33.324Z,2.10
2023-01-15T00:28:01.923Z,1.27
2023-01-15T00:30:29.919Z,1.73
2023-01-15T00:33:04.302Z,1.30
2023-01-15T00:35:33.519Z,2.40
2023-01-15T00:38:01.373Z,1.20
2023-01-15T00:40:31.305Z,2.10
2023-01-15T00:42:59.119Z,1.98
2023-01-15T00:45:29.496Z,1.92
2023-01-15T00:47:58.074Z,2.30
2023-01-15T00:50:25.948Z,2.05
2023-01-15T00:52:55.442Z,1.63
2023-01-15T00:55:25.721Z,1.60
2023-01-15T00:57:53.494Z,2.47
2023-01-15T01:00:21.775Z,2.38
2023-01-15T01:02:50.198Z,1.58
2023-01-15T01:05:18.151Z,1.88
2023-01-15T01:07:46.159Z,1.70
2023-01-15T01:10:15.970Z,2.05
2023-01-15T01:12:44.012Z,2.72
2023-01-15T01:15:12.264Z,1.80
2023-01-15T01:17:40.621Z,2.05
2023-01-15T01:20:10.369Z,2.05
2023-01-15T01:22:38.256Z,1.98
2023-01-15T01:25:07.445Z,2.40
2023-01-15T01:27:37.144Z,2.88
2023-01-15T01:30:05.471Z,1.80
2023-01-15T01:32:33.932Z,2.22
2023-01-15T01:35:01.910Z,1.75
2023-01-15T01:37:29.756Z,2.53
2023-01-15T01:39:58.352Z,1.95
2023-01-15T01:42:26.257Z,2.17
2023-01-15T01:45:19.261Z,2.00
2023-01-15T01:47:48.024Z,1.98
2023-01-15T01:50:15.954Z,1.73
2023-01-15T01:52:48.343Z,1.52
2023-01-15T01:55:19.280Z,1.98
2023-01-15T01:57:49.607Z,2.33
2023-01-15T02:00:19.978Z,1.77
2023-01-15T02:02:52.193Z,2.00
2023-01-15T02:05:29.041Z,1.95
2023-01-15T02:07:58.151Z,1.33
2023-01-15T02:10:26.271Z,1.80
2023-01-15T02:13:03.734Z,1.48
2023-01-15T02:15:37.351Z,1.65
2023-01-15T02:18:15.300Z,2.28
2023-01-15T02:20:49.288Z,1.35
2023-01-15T02:23:46.180Z,1.85
2023-01-15T02:26:52.225Z,1.63
2023-01-15T02:29:28.864Z,1.35
2023-01-15T02:31:56.885Z,1.48
2023-01-15T02:34:32.764Z,1.48
2023-01-15T02:37:06.667Z,1.75
2023-01-15T02:39:38.742Z,1.67
2023-01-15T02:42:10.914Z,1.45
2023-01-15T02:44:43.861Z,1.73
2023-01-15T02:47:12.847Z,1.50
2023-01-15T02:49:43.700Z,1.50
2023-01-15T02:52:17.449Z,2.83
2023-01-15T02:54:49.583Z,2.10
2023-01-15T02:57:21.607Z,2.55
2023-01-15T02:59:51.330Z,1.33
2023-01-15T03:02:22.681Z,1.75
2023-01-15T03:04:58.873Z,2.20
2023-01-15T03:07:33.111Z,1.55
2023-01-15T03:10:01.065Z,1.95
2023-01-15T03:12:59.267Z,2.70
2023-01-15T03:15:49.397Z,1.55
2023-01-15T03:18:23.421Z,1.50
2023-01-15T03:20:58.743Z,1.88
2023-01-15T03:23:30.125Z,2.03
2023-01-15T03:25:58.258Z,1.30
2023-01-15T03:28:33.287Z,2.00
2023-01-15T03:31:01.361Z,1.65
2023-01-15T03:33:31.053Z,1.85
2023-01-15T03:36:00.961Z,1.42
2023-01-15T03:38:30.436Z,1.83
2023-01-15T03:41:09.526Z,1.15
2023-01-15T03:43:47.959Z,2.35
2023-01-15T03:46:28.371Z,2.33
2023-01-15T03:49:03.312Z,1.65
2023-01-15T03:51:40.690Z,2.05
2023-01-15T03:54:14.430Z,1.35
2023-01-15T03:56:56.204Z,1.45
2023-01-15T03:59:31.003Z,1.52
2023-01-15T04:02:00.177Z,1.30
2023-01-15T04:04:29.485Z,2.05
2023-01-15T04:06:58.648Z,1.33
2023-01-15T04:09:27.097Z,1.52
2023-01-15T04:11:54.833Z,1.40
2023-01-15T04:14:22.681Z,1.67
2023-01-15T04:16:54.348Z,1.23
2023-01-15T04:19:22.292Z,1.30
2023-01-15T04:21:50.210Z,1.45
2023-01-15T04:24:18.249Z,1.20
2023-01-15T04:26:46.265Z,1.20
2023-01-15T04:29:14.115Z,1.33
2023-01-15T04:31:42.606Z,1.27
2023-01-15T04:34:11.882Z,1.30
2023-01-15T04:36:39.789Z,1.60
2023-01-15T04:39:08.405Z,1.35
2023-01-15T04:41:53.656Z,1.23
2023-01-15T04:44:21.941Z,1.02
2023-01-15T04:46:49.963Z,1.27
2023-01-15T04:49:19.860Z,2.15
2023-01-15T04:51:48.819Z,1.85
2023-01-15T04:54:18.056Z,0.80
2023-01-15T04:56:48.186Z,1.30
2023-01-15T04:59:17.358Z,1.20
2023-01-15T05:02:01.877Z,0.80
2023-01-15T05:04:32.599Z,0.80
2023-01-15T05:07:02.303Z,1.55
2023-01-15T05:09:30.158Z,1.30
2023-01-15T05:11:58.797Z,0.98
2023-01-15T05:14:26.716Z,1.00
2023-01-15T05:16:54.561Z,0.90
2023-01-15T05:19:22.940Z,1.30
2023-01-15T05:21:52.653Z,1.80
2023-01-15T05:24:20.836Z,1.20
2023-01-15T05:26:49.250Z,1.38
2023-01-15T05:29:17.153Z,1.35
2023-01-15T05:31:45.928Z,1.05
2023-01-15T05:34:14.827Z,0.93
2023-01-15T05:36:42.880Z,1.33
2023-01-15T05:39:12.383Z,0.95
2023-01-15T05:41:53.403Z,1.67
2023-01-15T05:44:23.995Z,0.90
2023-01-15T05:46:53.887Z,1.25
2023-01-15T05:49:23.616Z,1.13
2023-01-15T05:51:52.947Z,0.95
2023-01-15T05:54:24.699Z,1.08
2023-01-15T05:56:53.696Z,1.13
2023-01-15T05:59:24.460Z,0.77
2023-01-15T06:01:52.979Z,0.68
2023-01-15T06:04:21.866Z,1.13
2023-01-15T06:06:51.831Z,0.82
2023-01-15T06:09:23.059Z,0.90
2023-01-15T06:11:54.617Z,1.20
2023-01-15T06:14:22.815Z,0.98
2023-01-15T06:16:50.771Z,0.60
2023-01-15T06:19:19.156Z,0.90
2023-01-15T06:21:47.051Z,0.40
2023-01-15T06:24:16.704Z,0.80
2023-01-15T06:26:45.544Z,0.70
2023-01-15T06:29:18.837Z,2.05
2023-01-15T06:31:47.681Z,0.60
2023-01-15T06:34:15.588Z,0.52
2023-01-15T06:36:43.366Z,0.47
2023-01-15T06:39:12.425Z,0.65
2023-01-15T06:41:57.518Z,1.10
2023-01-15T06:44:47.279Z,6.18
2023-01-15T06:47:24.045Z,2.08
2023-01-15T06:49:55.167Z,1.40
2023-01-15T06:52:23.305Z,1.05
2023-01-15T06:54:51.446Z,1.27
2023-01-15T06:57:19.935Z,2.55
2023-01-15T06:59:49.791Z,5.72
2023-01-15T07:02:18.514Z,1.40
2023-01-15T07:04:47.399Z,1.55
2023-01-15T07:07:15.262Z,2.42
2023-01-15T07:09:43.073Z,1.92
2023-01-15T07:12:11.587Z,2.65
2023-01-15T07:14:39.378Z,4.13
2023-01-15T07:17:08.565Z,4.13
2023-01-15T07:19:36.971Z,3.30
2023-01-15T07:22:04.883Z,2.88
2023-01-15T07:24:32.875Z,1.65
2023-01-15T07:27:01.452Z,1.95
2023-01-15T07:29:30.877Z,2.63
2023-01-15T07:31:59.452Z,1.23
2023-01-15T07:34:29.188Z,1.60
2023-01-15T07:36:56.935Z,1.58
2023-01-15T07:39:24.779Z,1.98
2023-01-15T07:42:10.622Z,1.27
2023-01-15T07:44:55.816Z,1.42
2023-01-15T07:47:42.930Z,1.63
2023-01-15T07:50:14.535Z,1.60
2023-01-15T07:52:42.456Z,1.05
2023-01-15T07:55:13.138Z,1.40
2023-01-15T07:57:41.822Z,1.48
2023-01-15T08:00:12.787Z,1.00
2023-01-15T08:02:41.644Z,2.03
2023-01-15T08:05:11.542Z,2.60
2023-01-15T08:07:42.460Z,1.80
2023-01-15T08:10:12.140Z,1.50
2023-01-15T08:12:57.856Z,1.00
2023-01-15T08:17:53.849Z,1.10
2023-01-15T08:20:24.173Z,1.38
2023-01-15T08:22:53.988Z,2.80
2023-01-15T08:25:24.295Z,2.10
2023-01-15T08:27:52.547Z,1.80
2023-01-15T08:30:23.805Z,1.48
2023-01-15T08:32:52.450Z,2.17
2023-01-15T08:35:20.347Z,1.67
2023-01-15T08:37:48.267Z,1.83
2023-01-15T08:40:18.558Z,1.70
2023-01-15T08:42:46.457Z,1.58
2023-01-15T08:45:14.780Z,1.63
2023-01-15T08:47:42.734Z,2.13
2023-01-15T08:50:11.807Z,1.95
2023-01-15T08:52:39.790Z,1.67
2023-01-15T08:55:09.072Z,1.60
2023-01-15T08:57:38.684Z,1.50
2023-01-15T09:00:08.162Z,1.83
2023-01-15T09:02:36.539Z,1.92
2023-01-15T09:05:04.402Z,1.77
2023-01-15T09:07:32.228Z,1.40
2023-01-15T09:10:00.228Z,1.45
2023-01-15T09:12:28.038Z,1.33
2023-01-15T09:15:02.164Z,1.83
2023-01-15T09:17:30.378Z,1.30
2023-01-15T09:20:00.286Z,1.02
2023-01-15T09:22:31.285Z,1.40
2023-01-15T09:24:59.454Z,1.23
2023-01-15T09:27:27.555Z,1.30
2023-01-15T09:29:58.113Z,1.40
2023-01-15T09:32:26.134Z,1.35
2023-01-15T09:34:54.033Z,1.50
2023-01-15T09:37:22.603Z,1.10
2023-01-15T09:39:50.544Z,2.03
2023-01-15T09:42:37.349Z,1.45
2023-01-15T09:45:23.722Z,1.35
2023-01-15T09:48:18.393Z,2.67
2023-01-15T09:50:58.185Z,4.32
2023-01-15T09:53:39.477Z,2.08
2023-01-15T09:56:07.503Z,2.40
2023-01-15T09:58:38.034Z,1.50
2023-01-15T10:01:08.422Z,4.00
2023-01-15T10:03:43.409Z,2.08
2023-01-15T10:06:17.414Z,2.17
2023-01-15T10:08:47.180Z,1.50
2023-01-15T10:11:49.904Z,2.55
2023-01-15T10:14:38.992Z,1.02
2023-01-15T10:17:29.214Z,1.27
2023-01-15T10:19:58.517Z,1.73
2023-01-15T10:22:41.662Z,1.95
2023-01-15T10:25:17.240Z,2.38
2023-01-15T10:27:49.469Z,1.60
2023-01-15T10:30:19.013Z,1.98
2023-01-15T10:33:07.603Z,1.80
2023-01-15T10:35:43.005Z,2.78
2023-01-15T10:41:03.642Z,1.50
2023-01-15T10:43:41.898Z,2.28
2023-01-15T10:46:14.316Z,1.38
2023-01-15T10:48:47.536Z,1.27
2023-01-15T10:51:18.843Z,1.27
2023-01-15T10:53:51.816Z,0.90
2023-01-15T10:56:30.327Z,1.38
2023-01-15T10:59:06.074Z,1.20
2023-01-15T11:01:34.099Z,1.38
2023-01-15T11:04:03.647Z,2.28
2023-01-15T11:06:34.155Z,2.97
2023-01-15T11:09:11.545Z,3.50
2023-01-15T11:12:02.289Z,3.60
2023-01-15T11:14:54.854Z,3.42
2023-01-15T11:17:41.689Z,2.00
2023-01-15T11:20:23.982Z,3.17
2023-01-15T11:22:52.618Z,2.78
2023-01-15T11:25:28.779Z,3.90
2023-01-15T11:27:57.835Z,2.92
2023-01-15T11:30:28.214Z,2.72
2023-01-15T11:32:58.694Z,3.10
2023-01-15T11:35:28.222Z,2.65
2023-01-15T11:38:07.741Z,3.20
2023-01-15T11:40:35.776Z,1.77
2023-01-15T11:43:21.643Z,2.08
2023-01-15T11:46:08.986Z,1.55
2023-01-15T11:49:02.806Z,1.38
2023-01-15T11:51:39.325Z,1.67
2023-01-15T11:54:11.823Z,1.30
2023-01-15T11:56:44.715Z,1.20
2023-01-15T11:59:15.416Z,1.50
2023-01-15T12:01:54.751Z,1.60
2023-01-15T12:04:35.079Z,1.85
2023-01-15T12:07:06.231Z,2.22
2023-01-15T12:09:48.514Z,1.58
2023-01-15T12:12:29.215Z,1.30
2023-01-15T12:15:20.448Z,1.10
2023-01-15T12:18:05.156Z,1.90
2023-01-15T12:20:50.194Z,1.25
2023-01-15T12:23:45.949Z,1.30
2023-01-15T12:26:21.614Z,1.40
2023-01-15T12:28:59.192Z,1.50
2023-01-15T12:31:33.001Z,1.40
2023-01-15T12:34:06.309Z,0.95
2023-01-15T12:36:40.588Z,1.60
2023-01-15T12:39:18.157Z,2.70
2023-01-15T12:42:07.567Z,2.10
2023-01-15T12:44:58.077Z,2.00
2023-01-15T12:47:31.637Z,1.80
2023-01-15T12:50:05.541Z,2.40
2023-01-15T12:52:40.840Z,2.60
2023-01-15T12:57:45.254Z,2.45
2023-01-15T13:00:18.258Z,1.20
2023-01-15T13:03:01.635Z,2.08
2023-01-15T13:05:31.952Z,2.45
2023-01-15T13:08:06.700Z,1.10
2023-01-15T13:10:36.612Z,1.02
2023-01-15T13:13:17.024Z,1.50
2023-01-15T13:15:59.091Z,1.48
2023-01-15T13:18:37.292Z,0.95
2023-01-15T13:21:13.480Z,1.70
2023-01-15T13:24:08.871Z,1.35
2023-01-15T13:27:14.512Z,1.77
2023-01-15T13:29:57.306Z,1.23
2023-01-15T13:32:29.104Z,1.13
2023-01-15T13:35:02.946Z,1.77
2023-01-15T13:37:35.070Z,1.10
2023-01-15T13:40:11.998Z,1.02
2023-01-15T13:42:46.864Z,1.38
2023-01-15T13:45:34.284Z,1.30
2023-01-15T13:48:06.972Z,1.27
2023-01-15T13:50:38.583Z,0.93
2023-01-15T13:53:17.481Z,2.00
2023-01-15T13:55:53.557Z,2.38
2023-01-15T13:58:26.857Z,1.25
2023-01-15T14:01:05.837Z,2.55
2023-01-15T14:03:37.717Z,3.17
2023-01-15T14:06:08.188Z,1.83
2023-01-15T14:08:41.771Z,1.90
2023-01-15T14:11:44.933Z,2.00
2023-01-15T14:14:47.984Z,1.80
2023-01-15T14:17:42.047Z,1.95
2023-01-15T14:20:38.016Z,2.15
2023-01-15T14:23:22.015Z,1.95
2023-01-15T14:26:04.068Z,1.70
2023-01-15T14:28:48.565Z,2.30
2023-01-15T14:31:32.406Z,2.47
2023-01-15T14:34:14.328Z,1.83
2023-01-15T14:36:50.700Z,2.15
2023-01-15T14:39:34.992Z,1.95
2023-01-15T14:42:25.901Z,1.50
2023-01-15T14:44:59.932Z,3.65
2023-01-15T14:47:34.812Z,2.70
2023-01-15T14:50:20.254Z,3.33
2023-01-15T14:52:50.295Z,2.40
2023-01-15T14:55:19.046Z,1.50
2023-01-15T14:57:55.363Z,1.60
2023-01-15T15:00:25.515Z,2.67
2023-01-15T15:02:54.985Z,1.80
2023-01-15T15:05:24.895Z,2.53
2023-01-15T15:07:55.223Z,2.22
2023-01-15T15:10:27.451Z,1.98
2023-01-15T15:13:04.256Z,2.90
2023-01-15T15:15:44.223Z,3.92
2023-01-15T15:18:25.332Z,1.60
2023-01-15T15:21:01.595Z,3.65
2023-01-15T15:23:35.661Z,1.33
2023-01-15T15:26:06.088Z,1.80
2023-01-15T15:28:34.014Z,1.85
2023-01-15T15:31:02.897Z,1.00
2023-01-15T15:33:40.363Z,1.45
2023-01-15T15:36:09.971Z,1.70
2023-01-15T15:38:40.573Z,1.75
2023-01-15T15:41:13.029Z,1.15
2023-01-15T15:44:04.405Z,2.05
2023-01-15T15:46:51.706Z,1.38
2023-01-15T15:49:22.078Z,1.88
2023-01-15T15:51:51.144Z,1.70
2023-01-15T15:54:21.853Z,2.13
2023-01-15T15:56:54.694Z,1.70
2023-01-15T15:59:30.724Z,2.22
2023-01-15T16:02:02.153Z,1.65
2023-01-15T16:04:31.914Z,2.08
2023-01-15T16:06:59.729Z,1.92
2023-01-15T16:09:27.660Z,3.67
2023-01-15T16:12:07.455Z,1.65
2023-01-15T16:14:38.496Z,1.50
2023-01-15T16:17:06.485Z,1.58
2023-01-15T16:19:36.051Z,1.80
2023-01-15T16:22:06.413Z,5.57
2023-01-15T16:24:34.411Z,2.50
2023-01-15T16:27:07.936Z,2.60
2023-01-15T16:29:36.791Z,1.95
2023-01-15T16:32:11.945Z,3.60
2023-01-15T16:34:41.558Z,4.10
2023-01-15T16:37:26.843Z,2.67
2023-01-15T16:39:54.942Z,3.70
2023-01-15T16:42:28.587Z,3.45
2023-01-15T16:44:58.912Z,7.22
2023-01-15T16:47:28.524Z,9.07
2023-01-15T16:50:29.042Z,10.63
2023-01-15T16:53:00.155Z,5.57
2023-01-15T16:55:45.746Z,3.90
2023-01-15T16:58:19.584Z,4.50
2023-01-15T17:00:50.569Z,5.07
2023-01-15T17:03:21.203Z,7.88
2023-01-15T17:05:52.968Z,4.03
2023-01-15T17:08:23.136Z,4.30
2023-01-15T17:10:57.016Z,7.05
2023-01-15T17:13:33.779Z,11.30
2023-01-15T17:16:07.824Z,7.82
2023-01-15T17:18:36.883Z,7.82
2023-01-15T17:21:06.993Z,5.68
2023-01-15T17:23:42.437Z,6.05
2023-01-15T17:26:17.983Z,7.85
2023-01-15T17:28:46.139Z,7.22
2023-01-15T17:31:23.617Z,5.50
2023-01-15T17:33:52.536Z,5.05
2023-01-15T17:36:21.971Z,6.15
2023-01-15T17:38:50.430Z,5.22
2023-01-15T17:41:20.964Z,3.67
2023-01-15T17:43:49.751Z,3.72
2023-01-15T17:46:18.529Z,3.20
2023-01-15T17:48:47.817Z,3.53
2023-01-15T17:51:16.817Z,2.95
2023-01-15T17:53:46.005Z,3.53
2023-01-15T17:56:31.997Z,3.33
2023-01-15T17:59:31.587Z,3.38
2023-01-15T18:02:17.801Z,2.70
2023-01-15T18:05:07.353Z,4.60
2023-01-15T18:07:40.178Z,2.92
2023-01-15T18:10:11.555Z,3.70
2023-01-15T18:12:39.379Z,3.42
2023-01-15T18:15:09.132Z,1.83
2023-01-15T18:17:37.123Z,2.53
2023-01-15T18:20:05.736Z,3.10
2023-01-15T18:22:34.031Z,1.95
2023-01-15T18:25:01.947Z,2.25
2023-01-15T18:27:31.083Z,2.47
2023-01-15T18:29:59.943Z,2.95
2023-01-15T18:32:29.640Z,2.70
2023-01-15T18:34:57.851Z,2.05
2023-01-15T18:37:26.448Z,1.92
2023-01-15T18:39:54.219Z,2.38
2023-01-15T18:42:39.705Z,2.15
2023-01-15T18:45:28.196Z,2.15
2023-01-15T18:47:56.328Z,2.88
2023-01-15T18:50:24.194Z,2.13
2023-01-15T18:52:52.168Z,3.45
2023-01-15T18:55:21.716Z,2.33
2023-01-15T18:57:49.505Z,2.60
2023-01-15T19:00:19.999Z,3.22
2023-01-15T19:02:48.051Z,14.32
2023-01-15T19:05:17.211Z,2.67
2023-01-15T19:07:45.208Z,2.90
2023-01-15T19:10:14.483Z,2.20
2023-01-15T19:12:43.819Z,1.85
2023-01-15T19:15:32.075Z,2.40
2023-01-15T19:18:19.182Z,2.25
2023-01-15T19:20:47.441Z,2.42
2023-01-15T19:23:14.243Z,2.33
2023-01-15T19:25:44.693Z,2.25
2023-01-15T19:28:16.138Z,2.72
2023-01-15T19:31:05.049Z,2.10
2023-01-15T19:33:35.229Z,2.60
2023-01-15T19:36:03.862Z,2.38
2023-01-15T19:38:33.110Z,2.15
2023-01-15T19:41:21.553Z,2.58
2023-01-15T19:44:07.007Z,2.50
2023-01-15T19:46:52.490Z,4.70
2023-01-15T19:49:41.633Z,3.72
2023-01-15T19:52:27.125Z,2.75
2023-01-15T19:54:57.907Z,2.90
2023-01-15T19:57:26.594Z,2.35
2023-01-15T19:59:54.765Z,2.90
2023-01-15T20:02:23.204Z,3.22
2023-01-15T20:04:52.706Z,2.05
2023-01-15T20:07:21.002Z,2.55
2023-01-15T20:09:48.825Z,2.38
2023-01-15T20:12:34.223Z,2.00
2023-01-15T20:15:02.027Z,1.73
2023-01-15T20:17:30.793Z,1.70
2023-01-15T20:20:00.654Z,1.58
2023-01-15T20:22:30.607Z,1.75
2023-01-15T20:24:58.974Z,1.10
2023-01-15T20:27:27.207Z,1.23
2023-01-15T20:29:55.985Z,1.05
2023-01-15T20:32:24.141Z,1.17
2023-01-15T20:34:52.123Z,0.98
2023-01-15T20:37:22.586Z,1.00
2023-01-15T20:39:50.579Z,1.38
2023-01-15T20:42:36.696Z,1.15
2023-01-15T20:45:10.608Z,1.23
2023-01-15T20:47:57.926Z,1.15
2023-01-15T20:50:27.670Z,0.85
2023-01-15T20:53:01.315Z,1.30
2023-01-15T20:55:49.660Z,0.77
2023-01-15T21:01:13.655Z,1.05
2023-01-15T21:03:42.356Z,1.08
2023-01-15T21:06:10.878Z,1.23
2023-01-15T21:08:42.737Z,2.20
2023-01-15T21:11:10.716Z,1.70
2023-01-15T21:13:45.113Z,1.00
2023-01-15T21:16:14.663Z,1.37
2023-01-15T21:18:46.027Z,1.42
2023-01-15T21:21:16.703Z,1.45
2023-01-15T21:23:46.928Z,1.13
2023-01-15T21:26:15.176Z,1.20
2023-01-15T21:28:44.379Z,1.05
2023-01-15T21:31:14.432Z,1.20
2023-01-15T21:33:42.336Z,1.63
2023-01-15T21:36:12.842Z,1.30
2023-01-15T21:38:42.090Z,1.60
2023-01-15T21:41:13.922Z,1.30
2023-01-15T21:43:59.497Z,1.33
2023-01-15T21:46:28.273Z,1.00
2023-01-15T21:48:56.530Z,1.27
2023-01-15T21:51:25.143Z,1.20
2023-01-15T21:53:53.034Z,0.85
2023-01-15T21:56:22.932Z,1.60
2023-01-15T21:58:52.697Z,1.23
2023-01-15T22:01:21.046Z,1.30
2023-01-15T22:03:49.129Z,1.20
2023-01-15T22:06:17.356Z,1.13
2023-01-15T22:08:45.336Z,1.20
2023-01-15T22:11:13.366Z,1.33
2023-01-15T22:13:43.305Z,2.00
2023-01-15T22:16:11.295Z,1.77
2023-01-15T22:18:40.996Z,1.98
2023-01-15T22:21:14.881Z,1.17
2023-01-15T22:23:43.225Z,1.55
2023-01-15T22:26:18.588Z,2.00
2023-01-15T22:31:18.554Z,1.70
2023-01-15T22:33:46.629Z,1.63
2023-01-15T22:36:16.030Z,1.17
2023-01-15T22:38:44.855Z,1.55
2023-01-15T22:41:12.654Z,1.30
2023-01-15T22:43:40.835Z,3.55
2023-01-15T22:46:11.706Z,1.75
2023-01-15T22:48:39.999Z,2.20
2023-01-15T22:51:08.544Z,1.80
2023-01-15T22:53:37.979Z,2.42
2023-01-15T22:56:06.717Z,1.33
2023-01-15T22:58:35.041Z,2.00
2023-01-15T23:01:03.642Z,1.52
2023-01-15T23:03:36.406Z,1.45
2023-01-15T23:06:06.311Z,2.05
2023-01-15T23:08:36.405Z,1.88
2023-01-15T23:11:10.050Z,1.70
2023-01-15T23:13:51.788Z,1.77
2023-01-15T23:16:21.856Z,2.30
2023-01-15T23:18:51.447Z,1.40
2023-01-15T23:21:24.500Z,1.40
2023-01-15T23:23:55.055Z,1.75
2023-01-15T23:26:24.240Z,1.52
2023-01-15T23:28:53.849Z,1.83
2023-01-15T23:31:23.348Z,1.50
2023-01-15T23:33:54.530Z,1.27
2023-01-15T23:36:23.192Z,0.80
2023-01-15T23:38:51.171Z,1.52
2023-01-15T23:41:42.406Z,2.00
2023-01-15T23:44:32.173Z,0.80
2023-01-15T23:47:03.652Z,2.10
2023-01-15T23:49:33.337Z,1.27
2023-01-15T23:52:02.095Z,1.65
2023-01-15T23:54:31.847Z,1.77
2023-01-15T23:57:01.266Z,0.90
2023-01-15T23:59:32.151Z,1.60
